Time;durP1;ratioP1;P1;durP2;ratioP2;P2;SDS_P1;SDS_P2;PMS_P1;PMS_P2;Temp;Humidity;BMP_temperature;BMP_pressure;BME280_temperature;BME280_humidity;BME280_pressure;Samples;Min_cycle;Max_cycle;Signal;HPM_P1;HPM_P2
2023/02/23 00:01:48;;;;;;;26.13;17.05;;;9.40;70.10;;;;;;5038536;28;20086;-75
2023/02/23 00:04:14;;;;;;;26.05;17.02;;;9.40;70.10;;;;;;5038363;28;20017;-75
2023/02/23 00:06:39;;;;;;;27.17;15.68;;;9.40;70.30;;;;;;5038555;28;20025;-79
2023/02/23 00:09:09;;;;;;;24.75;15.93;;;9.30;70.50;;;;;;5038004;28;20036;-75
2023/02/23 00:11:35;;;;;;;25.92;15.15;;;9.30;70.90;;;;;;5038637;28;20381;-75
2023/02/23 00:14:02;;;;;;;25.98;15.15;;;9.20;70.80;;;;;;5021798;28;20082;-75
2023/02/23 00:16:27;;;;;;;27.63;16.23;;;9.30;71.20;;;;;;5038249;28;20110;-75
2023/02/23 00:18:59;;;;;;;23.92;14.43;;;9.30;71.30;;;;;;5056186;28;20488;-75
2023/02/23 00:21:28;;;;;;;32.65;16.27;;;9.30;71.30;;;;;;5037936;28;20021;-75
2023/02/23 00:23:59;;;;;;;27.48;15.40;;;9.40;71.40;;;;;;5038403;28;20135;-76
2023/02/23 00:26:29;;;;;;;31.67;15.18;;;9.40;71.60;;;;;;5056222;28;20108;-75
2023/02/23 00:28:55;;;;;;;26.70;16.50;;;9.30;71.40;;;;;;5038032;28;20025;-75
2023/02/23 00:31:24;;;;;;;30.42;18.02;;;9.30;71.50;;;;;;5037882;28;20032;-76
2023/02/23 00:33:57;;;;;;;28.52;17.88;;;9.20;71.50;;;;;;5055710;28;20052;-75
2023/02/23 00:36:26;;;;;;;27.90;16.30;;;9.20;71.90;;;;;;5037952;28;20457;-75
2023/02/23 00:38:56;;;;;;;25.42;16.15;;;9.20;72.00;;;;;;5037902;28;20434;-76
2023/02/23 00:41:27;;;;;;;27.13;15.32;;;9.20;71.90;;;;;;5018120;28;20418;-76
2023/02/23 00:43:54;;;;;;;23.73;15.07;;;9.20;72.00;;;;;;5035447;28;20036;-76
2023/02/23 00:46:21;;;;;;;27.42;16.83;;;9.20;71.90;;;;;;5017709;28;20025;-76
2023/02/23 00:48:49;;;;;;;30.80;17.45;;;9.20;72.00;;;;;;5001699;28;20490;-76
2023/02/23 00:51:16;;;;;;;26.23;16.35;;;9.20;72.10;;;;;;5017876;28;20026;-76
2023/02/23 00:53:43;;;;;;;26.27;16.65;;;9.20;72.30;;;;;;5018069;28;20036;-75
2023/02/23 00:56:11;;;;;;;28.73;16.83;;;9.20;72.30;;;;;;5017584;28;20125;-76
2023/02/23 00:58:37;;;;;;;26.15;15.95;;;9.20;72.20;;;;;;5017636;28;20018;-76
2023/02/23 01:01:11;;;;;;;22.75;15.38;;;9.20;72.20;;;;;;5017459;28;20030;-75
2023/02/23 01:03:40;;;;;;;31.25;16.70;;;9.10;72.80;;;;;;5017900;28;20063;-75
2023/02/23 01:06:08;;;;;;;26.05;17.20;;;9.10;72.80;;;;;;5017707;28;20033;-76
2023/02/23 01:08:40;;;;;;;27.33;16.58;;;9.10;72.90;;;;;;5035347;28;20025;-76
2023/02/23 01:11:08;;;;;;;27.13;16.15;;;9.10;72.90;;;;;;5017497;28;20029;-76
2023/02/23 01:13:36;;;;;;;27.52;16.75;;;9.10;72.90;;;;;;5017313;28;20021;-75
2023/02/23 01:16:08;;;;;;;26.98;16.48;;;9.10;72.80;;;;;;5017336;28;20048;-75
2023/02/23 01:18:35;;;;;;;26.83;17.45;;;9.20;72.60;;;;;;5017350;28;20518;-76
2023/02/23 01:21:02;;;;;;;26.17;16.45;;;9.20;72.50;;;;;;5017606;28;20022;-75
2023/02/23 01:23:30;;;;;;;28.08;16.45;;;9.20;72.40;;;;;;5017030;28;20035;-76
2023/02/23 01:25:55;;;;;;;26.98;15.95;;;9.30;72.10;;;;;;5017036;28;20025;-76
2023/02/23 01:28:22;;;;;;;24.70;16.73;;;9.30;72.90;;;;;;5017392;28;20021;-75
2023/02/23 01:30:49;;;;;;;27.65;16.92;;;9.30;72.10;;;;;;5017250;28;20091;-76
2023/02/23 01:33:15;;;;;;;23.90;15.35;;;9.30;71.80;;;;;;5016866;28;20044;-76
2023/02/23 01:35:42;;;;;;;29.42;16.73;;;9.30;72.00;;;;;;5017064;28;20033;-76
2023/02/23 01:38:08;;;;;;;28.52;16.10;;;9.20;72.20;;;;;;5016826;28;20037;-76
2023/02/23 01:40:36;;;;;;;28.25;15.88;;;9.20;72.30;;;;;;5000614;28;20021;-75
2023/02/23 01:43:24;;;;;;;22.85;16.42;;;9.10;72.50;;;;;;5016703;28;20040;-75
2023/02/23 01:45:54;;;;;;;22.98;14.95;;;9.10;73.00;;;;;;5017081;28;20478;-76
2023/02/23 01:48:26;;;;;;;30.00;15.98;;;9.00;73.10;;;;;;5017011;28;20026;-76
2023/02/23 01:50:58;;;;;;;21.25;14.43;;;9.00;73.30;;;;;;5016568;28;20025;-75
2023/02/23 01:53:26;;;;;;;24.10;15.40;;;9.00;73.60;;;;;;5033444;28;20025;-75
2023/02/23 01:56:00;;;;;;;26.85;15.38;;;8.90;74.00;;;;;;5016277;28;20041;-75
2023/02/23 01:58:27;;;;;;;24.30;15.73;;;8.90;73.90;;;;;;5000215;28;20124;-75
2023/02/23 02:00:55;;;;;;;23.60;14.65;;;8.90;74.00;;;;;;5016234;28;20025;-75
2023/02/23 02:03:45;;;;;;;19.17;12.77;;;9.00;74.00;;;;;;5016160;28;20490;-76
2023/02/23 02:06:15;;;;;;;23.20;14.20;;;9.00;75.00;;;;;;5015388;28;20030;-76
2023/02/23 02:08:47;;;;;;;23.80;13.40;;;9.00;74.20;;;;;;4999996;28;20030;-75
2023/02/23 02:11:34;;;;;;;21.05;13.27;;;9.00;74.30;;;;;;5032444;28;20064;-76
2023/02/23 02:14:14;;;;;;;21.05;13.52;;;9.10;74.30;;;;;;5002743;28;20057;-76
2023/02/23 02:16:41;;;;;;;21.42;13.57;;;9.10;74.00;;;;;;5034017;28;20033;-75
2023/02/23 02:19:28;;;;;;;20.85;13.20;;;9.10;73.90;;;;;;5032957;28;20105;-76
2023/02/23 02:22:25;;;;;;;23.58;13.10;;;9.10;73.80;;;;;;5032737;28;20029;-75
2023/02/23 02:25:11;;;;;;;22.83;12.93;;;9.20;73.50;;;;;;5033951;28;20026;-76
2023/02/23 02:27:42;;;;;;;18.90;12.07;;;9.20;73.50;;;;;;5032446;28;20025;-75
2023/02/23 02:31:04;;;;;;;20.90;12.85;;;9.20;73.40;;;;;;5032566;28;20021;-74
2023/02/23 02:33:53;;;;;;;18.50;11.23;;;9.20;73.30;;;;;;4963448;28;20055;-74
2023/02/23 02:37:01;;;;;;;21.25;12.30;;;9.30;73.40;;;;;;5015747;28;20040;-74
2023/02/23 02:39:35;;;;;;;18.58;11.68;;;9.30;73.40;;;;;;5025428;28;20037;-74
2023/02/23 02:42:42;;;;;;;20.73;12.40;;;9.40;73.20;;;;;;5020987;28;20048;-74
2023/02/23 02:45:13;;;;;;;20.25;12.07;;;9.40;73.10;;;;;;5005719;28;20038;-75
2023/02/23 02:47:46;;;;;;;17.50;10.30;;;9.30;73.10;;;;;;5015967;28;20029;-74
2023/02/23 02:50:30;;;;;;;18.98;10.80;;;9.40;73.40;;;;;;5015769;28;20017;-75
2023/02/23 02:53:10;;;;;;;19.73;10.70;;;9.30;73.60;;;;;;5015738;28;20032;-74
2023/02/23 02:55:42;;;;;;;21.30;10.82;;;9.30;73.80;;;;;;5015406;28;20120;-74
2023/02/23 02:58:10;;;;;;;19.27;10.65;;;9.40;74.00;;;;;;5033404;28;20456;-74
2023/02/23 04:18:44;;;;;;;25.20;13.85;;;9.20;78.10;;;;;;5032190;28;20382;-74
2023/02/23 04:21:10;;;;;;;20.35;13.35;;;9.20;78.20;;;;;;5015037;28;20053;-74
2023/02/23 04:23:39;;;;;;;20.33;12.40;;;9.10;78.20;;;;;;5014481;28;20030;-74
2023/02/23 04:26:05;;;;;;;18.13;10.88;;;9.10;78.70;;;;;;5014583;28;20022;-74
2023/02/23 04:28:30;;;;;;;15.82;10.18;;;9.00;79.50;;;;;;5014549;28;20036;-74
2023/02/23 04:30:56;;;;;;;20.48;9.45;;;9.00;79.90;;;;;;5017467;28;20117;-74
2023/02/23 04:33:23;;;;;;;19.27;10.32;;;8.90;80.10;;;;;;5018185;28;20045;-74
2023/02/23 04:35:52;;;;;;;15.68;9.77;;;8.90;80.00;;;;;;5018281;28;20379;-74
2023/02/23 04:38:18;;;;;;;19.48;10.02;;;8.80;80.10;;;;;;5034573;28;20120;-74
2023/02/23 04:40:44;;;;;;;17.08;10.07;;;8.80;80.20;;;;;;5018054;28;20028;-75
2023/02/23 04:43:13;;;;;;;17.90;11.48;;;8.80;80.40;;;;;;5017894;28;20025;-74
2023/02/23 04:45:39;;;;;;;17.33;11.63;;;8.80;80.30;;;;;;5018625;28;20041;-74
2023/02/23 04:48:05;;;;;;;19.60;11.52;;;8.80;80.20;;;;;;5036254;28;20025;-74
2023/02/23 04:50:30;;;;;;;19.23;12.13;;;8.80;80.20;;;;;;5023254;28;20038;-74
2023/02/23 04:52:56;;;;;;;20.77;11.60;;;8.80;80.30;;;;;;5017886;28;20018;-75
2023/02/23 04:55:24;;;;;;;16.98;11.60;;;8.70;80.40;;;;;;5017657;28;20021;-75
2023/02/23 04:57:50;;;;;;;15.82;10.07;;;8.70;80.80;;;;;;5035677;28;20049;-74
2023/02/23 05:00:17;;;;;;;20.20;10.23;;;8.60;81.10;;;;;;5017587;28;20080;-73
2023/02/23 05:02:43;;;;;;;15.20;10.00;;;8.60;81.50;;;;;;5017759;28;20104;-73
2023/02/23 05:05:09;;;;;;;18.77;8.95;;;8.60;81.60;;;;;;5017635;28;20087;-73
2023/02/23 05:07:35;;;;;;;10.32;7.07;;;8.50;81.70;;;;;;5017627;28;20037;-73
2023/02/23 05:10:01;;;;;;;12.65;7.70;;;8.40;82.00;;;;;;5017563;28;20485;-74
2023/02/23 05:12:27;;;;;;;10.38;6.63;;;8.40;81.90;;;;;;5017562;28;20207;-74
2023/02/23 05:14:52;;;;;;;13.20;7.13;;;8.50;81.90;;;;;;5017097;28;20113;-75
2023/02/23 05:17:18;;;;;;;12.05;6.90;;;8.40;81.70;;;;;;5017489;28;20029;-75
2023/02/23 05:19:43;;;;;;;13.38;6.47;;;8.40;81.90;;;;;;5017663;28;20031;-74
2023/02/23 05:22:11;;;;;;;11.00;7.05;;;8.40;82.20;;;;;;5017665;28;20473;-76
2023/02/23 05:24:39;;;;;;;11.05;7.00;;;8.20;82.60;;;;;;5017359;28;20022;-78
2023/02/23 05:27:08;;;;;;;13.15;8.10;;;8.20;82.90;;;;;;5017011;28;20120;-78
2023/02/23 05:29:34;;;;;;;13.30;7.72;;;8.20;82.90;;;;;;5017467;28;20070;-75
2023/02/23 05:32:00;;;;;;;14.35;7.75;;;8.10;83.00;;;;;;5017156;28;20470;-76
2023/02/23 05:34:27;;;;;;;11.52;7.30;;;8.10;83.20;;;;;;4997428;28;20054;-78
2023/02/23 05:36:53;;;;;;;12.63;7.60;;;8.20;83.00;;;;;;4996941;28;20053;-77
2023/02/23 05:39:20;;;;;;;12.60;7.53;;;8.10;82.80;;;;;;5021306;28;20070;-76
2023/02/23 05:41:46;;;;;;;14.27;7.47;;;8.20;82.70;;;;;;5031781;28;20496;-76
2023/02/23 05:44:11;;;;;;;15.10;8.60;;;8.20;82.50;;;;;;5033397;28;20063;-75
2023/02/23 05:46:37;;;;;;;17.35;8.77;;;8.20;82.30;;;;;;5033537;28;20390;-76
2023/02/23 05:49:04;;;;;;;14.98;8.65;;;8.30;82.10;;;;;;5033228;28;20124;-77
2023/02/23 05:51:32;;;;;;;18.08;9.60;;;8.20;81.90;;;;;;5033102;28;20025;-75
2023/02/23 05:53:58;;;;;;;16.63;9.23;;;8.20;81.70;;;;;;5032974;28;20101;-75
2023/02/23 05:56:24;;;;;;;22.98;10.02;;;8.20;81.90;;;;;;5032818;28;20559;-75
2023/02/23 05:58:52;;;;;;;22.48;9.80;;;8.10;82.40;;;;;;5032860;28;20371;-75
2023/02/23 06:01:18;;;;;;;16.85;10.38;;;8.10;82.10;;;;;;5033475;28;20025;-78
2023/02/23 06:03:44;;;;;;;15.25;9.70;;;8.10;82.00;;;;;;5034236;28;20029;-76
2023/02/23 06:06:10;;;;;;;14.23;9.50;;;8.10;82.30;;;;;;5041906;28;20033;-75
2023/02/23 06:08:36;;;;;;;17.52;10.30;;;8.10;82.30;;;;;;5032706;28;20025;-74
2023/02/23 06:11:01;;;;;;;15.05;8.48;;;8.10;82.30;;;;;;5032701;28;20120;-75
2023/02/23 06:13:27;;;;;;;17.05;9.55;;;8.10;82.40;;;;;;5016319;28;20502;-74
2023/02/23 06:15:53;;;;;;;17.50;9.48;;;8.10;82.20;;;;;;5034296;28;20029;-74
2023/02/23 06:18:20;;;;;;;19.20;9.88;;;8.10;82.10;;;;;;5032857;28;20490;-73
2023/02/23 06:20:46;;;;;;;22.90;9.32;;;8.20;82.00;;;;;;5032516;28;20018;-74
2023/02/23 06:23:12;;;;;;;17.23;9.70;;;8.20;81.80;;;;;;5032741;28;20160;-74
2023/02/23 06:25:39;;;;;;;14.80;8.77;;;8.20;81.60;;;;;;5032822;28;20017;-73
2023/02/23 06:28:06;;;;;;;18.95;9.75;;;8.30;81.70;;;;;;5032270;28;20025;-74
2023/02/23 06:30:32;;;;;;;18.67;8.95;;;8.30;81.60;;;;;;5032470;28;20022;-74
2023/02/23 06:32:57;;;;;;;15.13;9.43;;;8.40;81.30;;;;;;5035043;28;20045;-74
2023/02/23 06:35:23;;;;;;;15.65;9.45;;;8.40;81.20;;;;;;5035728;28;20029;-74
2023/02/23 06:37:48;;;;;;;23.92;12.38;;;8.40;81.20;;;;;;5034886;28;20488;-75
2023/02/23 06:40:14;;;;;;;17.50;10.25;;;8.30;81.10;;;;;;5035393;28;20051;-75
2023/02/23 06:42:39;;;;;;;20.40;10.30;;;8.30;81.10;;;;;;5035317;28;20029;-74
2023/02/23 06:45:05;;;;;;;19.88;9.82;;;8.30;81.10;;;;;;5035297;28;20025;-74
2023/02/23 06:47:31;;;;;;;22.75;9.80;;;8.30;81.30;;;;;;5035237;28;20029;-74
2023/02/23 06:49:58;;;;;;;16.42;9.18;;;8.40;81.20;;;;;;5035428;28;20116;-74
2023/02/23 06:52:25;;;;;;;16.17;8.70;;;8.50;81.10;;;;;;5034917;28;20548;-74
2023/02/23 06:54:50;;;;;;;25.67;9.90;;;8.50;81.00;;;;;;5034961;28;20036;-74
2023/02/23 06:57:16;;;;;;;16.15;8.82;;;8.50;80.80;;;;;;5018546;28;20037;-74
2023/02/23 06:59:42;;;;;;;17.33;9.60;;;8.60;80.80;;;;;;5035351;28;20017;-74
2023/02/23 07:02:10;;;;;;;17.90;9.25;;;8.60;80.50;;;;;;5035515;28;20029;-73
2023/02/23 07:04:35;;;;;;;17.30;11.02;;;8.70;80.50;;;;;;5035101;28;20032;-74
2023/02/23 07:07:02;;;;;;;20.15;10.00;;;8.70;80.40;;;;;;5034903;28;20025;-74
2023/02/23 07:09:28;;;;;;;16.98;10.75;;;8.70;80.30;;;;;;5034962;28;20032;-74
2023/02/23 07:11:53;;;;;;;15.50;9.38;;;8.80;80.20;;;;;;5035067;28;20111;-74
2023/02/23 07:14:19;;;;;;;14.68;8.82;;;8.80;80.10;;;;;;5035291;28;20052;-74
2023/02/23 07:16:44;;;;;;;15.60;7.15;;;8.90;80.10;;;;;;5035034;28;20040;-74
2023/02/23 07:19:10;;;;;;;13.52;7.50;;;8.90;80.00;;;;;;5034986;28;20112;-74
2023/02/23 07:21:35;;;;;;;17.73;10.05;;;8.90;79.90;;;;;;5035026;28;20029;-74
2023/02/23 07:24:05;;;;;;;16.58;9.60;;;9.00;79.70;;;;;;5034777;28;20059;-74
2023/02/23 07:26:32;;;;;;;14.65;9.40;;;9.00;79.50;;;;;;5035103;28;20021;-74
2023/02/23 07:28:59;;;;;;;13.05;8.52;;;9.10;79.60;;;;;;5034814;28;20508;-75
2023/02/23 07:31:25;;;;;;;14.80;8.02;;;9.10;79.40;;;;;;5034993;28;20033;-74
2023/02/23 07:33:53;;;;;;;13.52;7.10;;;9.20;79.20;;;;;;5034281;28;20087;-73
2023/02/23 07:36:20;;;;;;;12.10;7.07;;;9.20;78.90;;;;;;5034316;28;20047;-73
2023/02/23 07:38:45;;;;;;;10.52;5.88;;;9.30;78.90;;;;;;5039578;28;20021;-74
2023/02/23 07:41:11;;;;;;;13.05;6.85;;;9.30;78.50;;;;;;5041806;28;20074;-73
2023/02/23 07:43:37;;;;;;;10.00;6.43;;;9.30;78.40;;;;;;5034697;28;20021;-74
2023/02/23 07:46:03;;;;;;;11.18;5.93;;;9.40;78.30;;;;;;5034519;28;20032;-74
2023/02/23 07:48:30;;;;;;;9.98;6.25;;;9.40;78.00;;;;;;5033950;28;20131;-74
2023/02/23 07:50:56;;;;;;;12.10;6.97;;;9.50;78.00;;;;;;5034299;28;20492;-74
2023/02/23 07:53:22;;;;;;;12.30;7.15;;;9.50;77.70;;;;;;5034243;28;20029;-74
2023/02/23 07:55:57;;;;;;;12.75;6.70;;;9.50;77.50;;;;;;5034434;28;20440;-73
2023/02/23 07:58:23;;;;;;;14.07;7.60;;;9.60;77.50;;;;;;5034544;28;20104;-74
2023/02/23 08:00:48;;;;;;;12.00;8.10;;;9.60;77.30;;;;;;5034187;28;20098;-74
2023/02/23 08:03:14;;;;;;;14.45;8.52;;;9.60;77.00;;;;;;5034243;28;20029;-74
2023/02/23 08:05:39;;;;;;;15.75;8.43;;;9.60;76.90;;;;;;5036517;28;20045;-73
2023/02/23 08:08:05;;;;;;;12.63;8.00;;;9.70;76.70;;;;;;5038058;28;20029;-73
2023/02/23 08:10:31;;;;;;;14.63;9.85;;;9.70;76.50;;;;;;5038327;28;20025;-73
2023/02/23 08:12:57;;;;;;;15.52;9.93;;;9.70;76.70;;;;;;5038219;28;20036;-78
2023/02/23 08:15:23;;;;;;;17.73;11.02;;;9.80;76.80;;;;;;5038116;28;20078;-73
2023/02/23 08:17:49;;;;;;;21.52;10.85;;;9.80;76.80;;;;;;5037901;28;20037;-73
2023/02/23 08:20:15;;;;;;;18.23;10.30;;;10.00;82.50;;;;;;5056352;28;20155;-74
2023/02/23 08:22:40;;;;;;;22.77;11.40;;;10.30;82.10;;;;;;5038218;28;20570;-74
2023/02/23 08:25:06;;;;;;;18.83;9.65;;;10.50;76.90;;;;;;5038001;28;20112;-74
2023/02/23 08:27:34;;;;;;;16.90;10.32;;;10.70;76.20;;;;;;5038121;28;20385;-74
2023/02/23 08:30:02;;;;;;;12.73;9.65;;;10.80;74.40;;;;;;5037854;28;20552;-74
2023/02/23 08:32:29;;;;;;;15.88;9.43;;;10.90;73.20;;;;;;5055628;28;20057;-74
2023/02/23 08:34:56;;;;;;;15.32;9.93;;;11.10;73.00;;;;;;5055285;28;20063;-74
2023/02/23 08:37:23;;;;;;;17.55;9.93;;;11.20;72.20;;;;;;5037837;28;20059;-74
2023/02/23 08:39:48;;;;;;;15.55;10.38;;;11.30;71.30;;;;;;5055471;28;20017;-74
2023/02/23 08:42:15;;;;;;;13.90;8.63;;;11.40;70.30;;;;;;5055603;28;20040;-75
2023/02/23 08:44:40;;;;;;;14.52;9.30;;;11.40;70.20;;;;;;5037281;28;20028;-74
2023/02/23 08:47:06;;;;;;;19.80;9.30;;;11.40;70.50;;;;;;5037573;28;20468;-74
2023/02/23 08:49:32;;;;;;;16.95;8.95;;;11.60;70.10;;;;;;5055208;28;20525;-74
2023/02/23 08:51:57;;;;;;;19.40;9.38;;;11.70;69.00;;;;;;5055255;28;20416;-74
2023/02/23 08:54:23;;;;;;;14.02;9.20;;;11.80;68.30;;;;;;5036737;28;20021;-76
2023/02/23 08:56:48;;;;;;;15.68;9.10;;;11.80;68.30;;;;;;5037131;28;20047;-74
2023/02/23 08:59:14;;;;;;;14.25;8.52;;;11.80;68.00;;;;;;5036992;28;20089;-75
2023/02/23 09:01:41;;;;;;;12.90;7.68;;;12.00;68.00;;;;;;5054980;28;20105;-75
2023/02/23 09:04:07;;;;;;;14.77;9.00;;;12.10;67.50;;;;;;5037164;28;20032;-83
2023/02/23 09:06:34;;;;;;;10.95;8.20;;;12.20;66.70;;;;;;5036999;28;20029;-77
2023/02/23 09:09:00;;;;;;;9.98;6.78;;;12.40;66.40;;;;;;5037083;28;20358;-76
2023/02/23 09:11:26;;;;;;;12.38;7.68;;;12.50;65.20;;;;;;5037371;28;20079;-78
2023/02/23 09:13:53;;;;;;;16.10;8.30;;;12.60;64.50;;;;;;5037066;28;20033;-76
2023/02/23 09:16:19;;;;;;;14.43;7.75;;;12.70;63.70;;;;;;5036593;28;20036;-76
2023/02/23 09:18:45;;;;;;;15.70;8.15;;;12.80;62.90;;;;;;5036827;28;20021;-76
2023/02/23 09:21:21;;;;;;;16.65;8.38;;;12.80;62.30;;;;;;5036911;28;20074;-79
2023/02/23 09:23:49;;;;;;;13.57;8.50;;;12.80;62.50;;;;;;5037120;28;20440;-75
2023/02/23 09:26:17;;;;;;;15.00;8.48;;;12.90;62.40;;;;;;5037042;28;20043;-76
2023/02/23 09:28:43;;;;;;;15.75;8.13;;;13.00;62.00;;;;;;5036864;28;20461;-76
2023/02/23 09:31:15;;;;;;;16.27;8.20;;;12.80;61.60;;;;;;5020484;28;20104;-75
2023/02/23 09:33:43;;;;;;;13.05;7.40;;;13.00;61.70;;;;;;5036610;28;20045;-76
2023/02/23 09:36:15;;;;;;;12.38;7.70;;;13.20;61.20;;;;;;5036463;28;20061;-75
2023/02/23 09:38:41;;;;;;;11.27;7.35;;;13.30;60.50;;;;;;5036686;28;20025;-76
2023/02/23 09:41:47;;;;;;;9.52;6.22;;;13.30;59.50;;;;;;5054152;28;20055;-74
2023/02/23 09:44:33;;;;;;;9.88;6.35;;;13.40;59.70;;;;;;4988655;28;20036;-74
2023/02/23 09:47:03;;;;;;;11.90;5.63;;;13.40;59.40;;;;;;5034341;28;20487;-76
2023/02/23 09:49:34;;;;;;;19.00;10.63;;;13.50;59.30;;;;;;5033913;28;20025;-75
2023/02/23 09:52:02;;;;;;;14.68;6.65;;;13.50;59.20;;;;;;5035851;28;20194;-75
2023/02/23 09:54:33;;;;;;;10.32;6.07;;;13.60;58.30;;;;;;5035931;28;20021;-77
2023/02/23 09:57:02;;;;;;;13.18;6.25;;;13.60;58.20;;;;;;5036197;28;20044;-79
2023/02/23 09:59:28;;;;;;;12.80;6.70;;;13.70;58.60;;;;;;5035597;28;20025;-76
2023/02/23 10:02:04;;;;;;;8.98;5.97;;;13.60;58.40;;;;;;5034206;28;20489;-76
2023/02/23 10:04:37;;;;;;;11.73;6.20;;;13.70;58.30;;;;;;5050262;28;20025;-75
2023/02/23 10:07:11;;;;;;;12.45;6.10;;;13.80;57.90;;;;;;5036003;28;20029;-76
2023/02/23 10:09:52;;;;;;;12.10;5.55;;;13.90;57.00;;;;;;5035435;28;20148;-77
2023/02/23 10:12:21;;;;;;;12.95;5.80;;;14.00;55.80;;;;;;5034212;28;20075;-74
2023/02/23 10:14:49;;;;;;;10.32;5.47;;;13.90;54.90;;;;;;5034140;28;20028;-76
2023/02/23 10:17:26;;;;;;;12.80;5.93;;;13.80;55.20;;;;;;5035913;28;20068;-76
2023/02/23 10:20:18;;;;;;;8.52;5.45;;;13.70;55.80;;;;;;5035253;28;20033;-74
2023/02/23 10:22:46;;;;;;;14.10;6.00;;;13.60;56.00;;;;;;5035681;28;20024;-76
2023/02/23 10:25:19;;;;;;;10.75;5.80;;;13.80;55.70;;;;;;5035668;28;20092;-75
2023/02/23 10:27:47;;;;;;;13.05;6.00;;;13.90;55.90;;;;;;5034903;28;20048;-75
2023/02/23 10:30:23;;;;;;;12.82;5.45;;;14.10;55.70;;;;;;5035855;28;20086;-77
2023/02/23 10:33:25;;;;;;;13.30;6.47;;;14.20;54.80;;;;;;5053227;28;20032;-76
2023/02/23 10:35:59;;;;;;;13.35;5.15;;;14.20;54.20;;;;;;5027226;28;20052;-75
2023/02/23 10:38:27;;;;;;;13.55;5.70;;;14.10;54.20;;;;;;5019486;28;20106;-75
2023/02/23 10:41:00;;;;;;;12.85;5.30;;;14.20;54.20;;;;;;5018934;28;20109;-77
2023/02/23 10:43:27;;;;;;;9.18;5.65;;;14.20;54.50;;;;;;5035446;28;20091;-77
2023/02/23 10:45:53;;;;;;;11.60;5.53;;;14.20;54.90;;;;;;5035738;28;20086;-76
2023/02/23 10:48:35;;;;;;;11.32;5.68;;;14.10;54.70;;;;;;5034880;28;20418;-78
2023/02/23 10:51:04;;;;;;;13.93;6.60;;;14.00;54.70;;;;;;5035150;28;20017;-77
2023/02/23 10:53:37;;;;;;;14.60;5.72;;;14.00;54.80;;;;;;5035560;28;20112;-77
2023/02/23 10:56:09;;;;;;;9.98;5.22;;;14.00;55.10;;;;;;5034963;28;20094;-76
2023/02/23 10:58:46;;;;;;;11.75;6.03;;;14.00;55.30;;;;;;5035028;28;20123;-77
2023/02/23 11:01:14;;;;;;;9.68;5.57;;;14.10;54.80;;;;;;5034056;28;20145;-77
2023/02/23 11:03:49;;;;;;;12.35;5.60;;;14.10;55.00;;;;;;5035185;28;20057;-76
2023/02/23 11:06:41;;;;;;;11.57;5.95;;;14.10;54.90;;;;;;5019373;28;20116;-76
2023/02/23 11:09:30;;;;;;;12.25;6.70;;;14.10;54.60;;;;;;5021320;28;20029;-77
2023/02/23 11:12:01;;;;;;;10.98;6.13;;;14.00;55.00;;;;;;5021718;28;20025;-76
2023/02/23 11:14:29;;;;;;;21.90;6.95;;;13.90;55.90;;;;;;5058230;28;20083;-76
2023/02/23 11:16:57;;;;;;;14.90;7.53;;;13.90;56.30;;;;;;5034651;28;20060;-75
2023/02/23 11:19:35;;;;;;;17.42;7.07;;;13.80;57.00;;;;;;5035071;28;20067;-76
2023/02/23 11:22:05;;;;;;;14.88;7.07;;;13.70;57.40;;;;;;5035176;28;20032;-75
2023/02/23 11:24:43;;;;;;;15.85;6.57;;;13.50;57.70;;;;;;5034399;28;20021;-76
2023/02/23 11:27:24;;;;;;;11.07;6.15;;;13.50;57.60;;;;;;5034203;28;20535;-78
2023/02/23 11:29:54;;;;;;;14.23;6.18;;;13.50;57.90;;;;;;5018750;28;20400;-78
2023/02/23 11:32:32;;;;;;;13.55;6.50;;;13.50;58.20;;;;;;5034279;28;20017;-76
2023/02/23 11:35:30;;;;;;;12.25;7.25;;;13.70;59.00;;;;;;5013934;28;20057;-74
2023/02/23 11:37:57;;;;;;;18.40;7.18;;;13.70;58.20;;;;;;4999075;28;20045;-75
2023/02/23 11:40:32;;;;;;;12.15;6.50;;;13.80;58.10;;;;;;5034429;28;20131;-75
2023/02/23 11:43:14;;;;;;;12.55;6.97;;;13.90;58.40;;;;;;5035561;28;20017;-78
2023/02/23 11:45:49;;;;;;;13.60;7.35;;;13.80;58.20;;;;;;5019131;28;20033;-75
2023/02/23 11:48:35;;;;;;;12.15;6.90;;;13.80;57.90;;;;;;5018841;28;20033;-75
2023/02/23 11:51:01;;;;;;;15.05;7.80;;;13.70;58.10;;;;;;5035493;28;20094;-76
2023/02/23 11:53:53;;;;;;;12.98;6.95;;;13.70;58.40;;;;;;5035126;28;20470;-75
2023/02/23 11:56:22;;;;;;;14.65;7.18;;;13.60;58.80;;;;;;5032047;28;20561;-75
2023/02/23 11:58:53;;;;;;;15.18;7.57;;;13.50;59.50;;;;;;5036335;28;20029;-76
2023/02/23 12:01:42;;;;;;;13.65;7.03;;;13.40;59.70;;;;;;5034526;28;20029;-76
2023/02/23 12:04:29;;;;;;;14.10;7.20;;;13.20;60.10;;;;;;5035364;28;20033;-76
2023/02/23 12:07:37;;;;;;;16.67;8.27;;;13.10;61.00;;;;;;5033062;28;20049;-76
2023/02/23 12:10:14;;;;;;;15.05;7.05;;;13.10;61.30;;;;;;5034673;28;20025;-75
2023/02/23 12:13:08;;;;;;;15.82;7.65;;;13.10;61.80;;;;;;5036276;28;20087;-76
2023/02/23 12:16:00;;;;;;;15.95;7.57;;;13.00;61.80;;;;;;5034239;28;20021;-76
2023/02/23 12:18:32;;;;;;;11.85;7.43;;;13.00;62.40;;;;;;5029096;28;20056;-76
2023/02/23 12:21:08;;;;;;;16.05;8.40;;;12.80;63.10;;;;;;5033320;28;20028;-76
2023/02/23 12:23:39;;;;;;;16.83;7.80;;;12.90;63.70;;;;;;5034895;28;20091;-75
2023/02/23 12:26:56;;;;;;;14.02;7.38;;;12.80;63.60;;;;;;5034135;28;20053;-75
2023/02/23 12:29:32;;;;;;;19.13;7.38;;;12.80;63.70;;;;;;4988708;28;20029;-75
2023/02/23 12:32:01;;;;;;;15.82;7.53;;;12.80;63.90;;;;;;5034273;28;20037;-76
2023/02/23 12:34:44;;;;;;;11.60;6.72;;;12.80;63.60;;;;;;5034464;28;20050;-75
2023/02/23 12:37:23;;;;;;;17.33;8.90;;;12.90;63.60;;;;;;5034354;28;20065;-77
2023/02/23 12:39:56;;;;;;;15.63;6.88;;;12.90;63.40;;;;;;5034221;28;20025;-75
2023/02/23 12:42:51;;;;;;;13.68;6.63;;;13.00;63.50;;;;;;5034250;28;20029;-75
2023/02/23 12:45:37;;;;;;;12.05;6.32;;;13.00;63.30;;;;;;5034158;28;20025;-75
2023/02/23 12:48:14;;;;;;;10.52;6.47;;;13.10;63.10;;;;;;5034275;28;20087;-75
2023/02/23 12:50:49;;;;;;;13.48;6.50;;;13.20;62.90;;;;;;5034828;28;20029;-75
2023/02/23 12:53:53;;;;;;;12.45;6.40;;;13.20;62.80;;;;;;5034233;28;20197;-77
2023/02/23 12:56:42;;;;;;;11.82;6.65;;;13.20;62.70;;;;;;5026337;28;20104;-75
2023/02/23 12:59:16;;;;;;;16.48;7.63;;;13.20;62.90;;;;;;5034516;28;20497;-77
2023/02/23 13:01:59;;;;;;;14.55;8.05;;;13.20;62.10;;;;;;5034316;28;20028;-77
2023/02/23 13:04:48;;;;;;;14.73;7.82;;;13.10;62.00;;;;;;5033964;28;20026;-78
2023/02/23 13:07:25;;;;;;;19.35;9.23;;;13.10;62.40;;;;;;5033900;28;20018;-77
2023/02/23 13:10:14;;;;;;;15.07;7.82;;;13.10;62.40;;;;;;5017828;28;20034;-74
2023/02/23 13:13:10;;;;;;;18.50;7.70;;;13.10;62.60;;;;;;5036930;28;20136;-76
2023/02/23 13:16:15;;;;;;;11.65;6.85;;;13.10;62.80;;;;;;5037074;28;20057;-76
2023/02/23 13:19:11;;;;;;;12.15;6.75;;;13.20;62.70;;;;;;5039490;28;20060;-77
2023/02/23 13:22:42;;;;;;;12.45;6.45;;;13.10;62.50;;;;;;5038354;28;20102;-76
2023/02/23 13:26:02;;;;;;;11.60;7.13;;;13.10;62.80;;;;;;4997416;28;20038;-74
2023/02/23 13:29:06;;;;;;;14.07;7.18;;;13.10;63.10;;;;;;5032541;28;20398;-77
2023/02/23 13:31:51;;;;;;;13.38;7.72;;;13.10;63.40;;;;;;5033511;28;20025;-76
2023/02/23 13:34:27;;;;;;;15.43;7.00;;;13.20;64.00;;;;;;5049217;28;20517;-76
2023/02/23 13:36:53;;;;;;;;;;;13.20;63.40;;;;;;5055327;28;20037;-76
2023/02/23 13:39:48;;;;;;;12.25;7.63;;;13.30;63.20;;;;;;5059342;28;19905;-75
2023/02/23 13:42:33;;;;;;;13.68;6.80;;;13.30;62.90;;;;;;5042492;28;20041;-77
2023/02/23 13:45:29;;;;;;;11.65;6.35;;;13.30;62.30;;;;;;5042933;28;20024;-76
2023/02/23 13:48:24;;;;;;;10.80;6.63;;;13.30;62.20;;;;;;5040428;28;20033;-77
2023/02/23 13:51:08;;;;;;;13.48;7.00;;;13.40;62.00;;;;;;5038810;28;20025;-76
2023/02/23 13:53:38;;;;;;;12.35;6.55;;;13.40;61.70;;;;;;5033286;28;20116;-75
2023/02/23 13:56:13;;;;;;;12.93;7.15;;;13.40;61.50;;;;;;5036114;28;20017;-75
2023/02/23 13:58:49;;;;;;;13.65;6.38;;;13.40;61.60;;;;;;5036292;28;20033;-75
2023/02/23 14:01:27;;;;;;;12.27;7.30;;;13.50;61.70;;;;;;5036371;28;20132;-77
2023/02/23 14:03:59;;;;;;;20.90;9.60;;;13.50;62.10;;;;;;5035202;28;20040;-78
2023/02/23 14:06:29;;;;;;;14.15;7.38;;;13.50;62.10;;;;;;5037376;28;20033;-76
2023/02/23 14:09:31;;;;;;;12.77;6.65;;;13.50;62.20;;;;;;5020543;28;20063;-77
2023/02/23 14:12:09;;;;;;;12.98;6.55;;;13.50;62.10;;;;;;5036543;28;20035;-76
2023/02/23 14:14:41;;;;;;;14.68;6.93;;;13.50;62.00;;;;;;5053066;28;20025;-76
2023/02/23 14:17:09;;;;;;;11.63;7.57;;;13.50;62.10;;;;;;5035635;28;20124;-78
2023/02/23 14:20:00;;;;;;;16.00;6.72;;;13.50;62.10;;;;;;5037053;28;20017;-79
2023/02/23 14:22:27;;;;;;;16.85;8.05;;;13.50;62.20;;;;;;5037925;28;20485;-76
2023/02/23 14:25:31;;;;;;;16.13;7.75;;;13.40;62.20;;;;;;5038786;28;20084;-76
2023/02/23 14:28:01;;;;;;;15.13;7.53;;;13.40;62.40;;;;;;5007721;28;20521;-77